Detroit, Michigan
Traffic Map
Current Weather Conditions
Detroit, Michigan
Broken Clouds
Broken Clouds
-1°
Feels Like: -6°
Wind Chill: -6° Ceiling: 2300
Heat Index: -1° Visibility: 15mi
Dew Point: -4° Wind: 10mph
Humidity: 80% Direction: 270° (W)
Pressure: 30.19in Gusts: 0mph
Raw Report DataCYQG 181200Z 27009KT 15SM BKN023 M01/M04 A3019 RMK SC7 CU EMBD SLP230
Traffic Incident Summary
Active as of:
Severity:
Category:
InformationThere was an issue retrieving the traffic information for this location. Please try a different location or try again shortly.
Advertisements
Track Severe Weather on mobile